createdAt,value
2019-02-15T00:01:44.306Z,2.38
2019-02-15T00:06:45.853Z,2.38
2019-02-15T00:11:47.469Z,2.36
2019-02-15T00:16:49.091Z,2.33
2019-02-15T00:21:51.057Z,2.29
2019-02-15T00:26:52.656Z,2.27
2019-02-15T00:31:54.244Z,2.24
2019-02-15T00:36:55.891Z,2.22
2019-02-15T00:41:57.814Z,2.24
2019-02-15T00:46:59.421Z,2.27
2019-02-15T00:52:01.015Z,2.19
2019-02-15T00:57:03.373Z,2.11
2019-02-15T01:02:04.901Z,2.03
2019-02-15T01:07:07.359Z,1.98
2019-02-15T01:12:08.946Z,1.89
2019-02-15T01:17:10.533Z,1.82
2019-02-15T01:22:12.189Z,1.76
2019-02-15T01:27:14.170Z,1.72
2019-02-15T01:32:16.140Z,1.67
2019-02-15T01:37:17.714Z,1.60
2019-02-15T01:42:19.374Z,1.53
2019-02-15T01:47:21.008Z,1.47
2019-02-15T01:52:22.545Z,1.39
2019-02-15T01:57:24.135Z,1.36
2019-02-15T02:02:25.695Z,1.33
2019-02-15T02:07:27.263Z,1.34
2019-02-15T02:12:28.822Z,1.28
2019-02-15T02:17:30.395Z,1.20
2019-02-15T02:22:32.020Z,1.26
2019-02-15T02:27:33.629Z,1.31
2019-02-15T02:32:35.215Z,1.31
2019-02-15T02:37:36.779Z,1.25
2019-02-15T02:42:38.879Z,1.14
2019-02-15T02:47:40.441Z,1.12
2019-02-15T02:52:42.011Z,1.12
2019-02-15T02:57:43.589Z,1.07
2019-02-15T03:02:45.187Z,1.01
2019-02-15T03:07:46.756Z,0.94
2019-02-15T03:12:48.335Z,0.85
2019-02-15T03:17:49.894Z,0.81
2019-02-15T03:22:51.510Z,0.76
2019-02-15T03:27:53.490Z,0.75
2019-02-15T03:32:55.152Z,0.75
2019-02-15T03:37:56.739Z,0.79
2019-02-15T03:42:58.669Z,0.82
2019-02-15T03:48:00.316Z,0.84
2019-02-15T03:53:01.890Z,0.86
2019-02-15T03:58:03.505Z,0.85
2019-02-15T04:03:05.058Z,0.86
2019-02-15T04:08:06.684Z,0.85
2019-02-15T04:13:08.226Z,0.86
2019-02-15T04:18:09.798Z,0.85
2019-02-15T04:23:11.385Z,0.91
2019-02-15T04:28:12.962Z,0.96
2019-02-15T04:33:14.543Z,1.00
2019-02-15T04:38:16.133Z,1.03
2019-02-15T04:43:17.673Z,1.07
2019-02-15T04:48:19.252Z,1.02
2019-02-15T04:53:20.890Z,0.99
2019-02-15T04:58:22.469Z,0.98
2019-02-15T05:03:24.127Z,0.96
2019-02-15T05:08:25.704Z,0.98
2019-02-15T05:13:27.772Z,1.01
2019-02-15T05:18:29.374Z,1.06
2019-02-15T05:23:30.930Z,1.09
2019-02-15T05:28:32.485Z,1.10
2019-02-15T05:33:35.670Z,1.16
2019-02-15T05:38:37.879Z,1.22
2019-02-15T05:43:39.437Z,1.22
2019-02-15T05:48:41.045Z,1.15
2019-02-15T05:53:42.673Z,1.07
2019-02-15T05:58:44.405Z,1.03
2019-02-15T06:03:46.005Z,1.02
2019-02-15T06:08:47.991Z,0.98
2019-02-15T06:13:49.656Z,0.99
2019-02-15T06:18:51.263Z,1.03
2019-02-15T06:23:52.876Z,1.00
2019-02-15T06:28:54.498Z,1.01
2019-02-15T06:33:56.106Z,1.07
2019-02-15T06:38:57.726Z,1.07
2019-02-15T06:43:59.350Z,1.10
2019-02-15T06:49:00.912Z,1.08
2019-02-15T06:54:02.481Z,1.07
2019-02-15T06:59:04.091Z,1.12
2019-02-15T07:04:05.876Z,1.13
2019-02-15T07:09:07.537Z,1.15
2019-02-15T07:14:09.600Z,1.14
2019-02-15T07:19:11.210Z,1.10
2019-02-15T07:24:12.844Z,1.09
2019-02-15T07:29:14.852Z,1.23
2019-02-15T07:34:16.448Z,1.28
2019-02-15T07:39:18.009Z,1.34
2019-02-15T07:44:19.628Z,1.38
2019-02-15T07:49:26.962Z,1.39
2019-02-15T07:54:24.890Z,1.43
2019-02-15T07:59:26.479Z,1.47
2019-02-15T08:04:29.093Z,1.55
2019-02-15T08:09:30.641Z,1.60
2019-02-15T08:14:32.271Z,1.67
2019-02-15T08:19:33.959Z,1.77
2019-02-15T08:24:35.536Z,1.81
2019-02-15T08:29:37.176Z,1.89
2019-02-15T08:34:38.789Z,1.97
2019-02-15T08:39:40.416Z,2.07
2019-02-15T08:44:42.055Z,2.19
2019-02-15T08:49:43.613Z,2.31
2019-02-15T08:54:45.210Z,2.44
2019-02-15T08:59:47.157Z,2.56
2019-02-15T09:04:48.830Z,2.77
2019-02-15T09:09:50.474Z,3.05
2019-02-15T09:14:52.109Z,3.43
2019-02-15T09:19:53.703Z,3.84
2019-02-15T09:24:55.297Z,4.25
2019-02-15T09:29:56.995Z,4.60
2019-02-15T09:34:58.605Z,5.04
2019-02-15T09:40:00.302Z,5.47
2019-02-15T09:45:01.998Z,5.85
2019-02-15T09:50:04.656Z,6.22
2019-02-15T09:55:07.495Z,6.64
2019-02-15T10:00:09.160Z,7.05
2019-02-15T10:05:11.814Z,7.46
2019-02-15T10:10:13.435Z,7.95
2019-02-15T10:15:15.058Z,8.42
2019-02-15T10:20:16.691Z,8.82
2019-02-15T10:25:18.730Z,9.29
2019-02-15T10:30:20.327Z,9.58
2019-02-15T10:35:21.913Z,9.86
2019-02-15T10:40:23.596Z,10.15
2019-02-15T10:45:25.144Z,10.36
2019-02-15T10:50:27.361Z,10.65
2019-02-15T10:55:29.137Z,11.05
2019-02-15T11:00:30.904Z,11.27
2019-02-15T11:05:32.903Z,11.49
2019-02-15T11:10:34.462Z,11.67
2019-02-15T11:15:36.042Z,11.84
2019-02-15T11:20:37.672Z,12.08
2019-02-15T11:25:39.239Z,12.16
2019-02-15T11:30:40.841Z,12.30
2019-02-15T11:35:42.454Z,12.37
2019-02-15T11:40:44.586Z,12.46
2019-02-15T11:45:46.222Z,12.39
2019-02-15T11:50:47.789Z,12.49
2019-02-15T11:55:49.332Z,12.69
2019-02-15T12:00:50.971Z,12.76
2019-02-15T12:05:52.667Z,12.83
2019-02-15T12:10:54.947Z,12.92
2019-02-15T12:15:56.662Z,13.14
2019-02-15T12:20:58.728Z,13.15
2019-02-15T12:26:00.396Z,13.25
2019-02-15T12:31:01.975Z,13.32
2019-02-15T12:36:03.574Z,13.42
2019-02-15T12:41:05.126Z,13.52
2019-02-15T12:46:07.070Z,13.55
2019-02-15T12:51:08.648Z,13.70
2019-02-15T12:56:12.802Z,13.77
2019-02-15T13:01:14.753Z,13.82
2019-02-15T13:06:16.309Z,13.93
2019-02-15T13:11:17.863Z,14.01
2019-02-15T13:16:19.694Z,14.10
2019-02-15T13:21:21.238Z,14.27
2019-02-15T13:26:24.126Z,14.41
2019-02-15T13:31:25.968Z,14.55
2019-02-15T13:36:28.396Z,14.67
2019-02-15T13:41:31.071Z,14.88
2019-02-15T13:46:33.395Z,15.11
2019-02-15T13:51:35.596Z,15.23
2019-02-15T13:56:37.154Z,15.42
2019-02-15T14:01:39.083Z,15.59
2019-02-15T14:06:40.641Z,15.65
2019-02-15T14:11:42.191Z,15.77
2019-02-15T14:16:43.763Z,15.88
2019-02-15T14:21:45.977Z,15.97
2019-02-15T14:26:48.058Z,16.09
2019-02-15T14:31:49.986Z,16.13
2019-02-15T14:36:51.873Z,16.25
2019-02-15T14:41:53.773Z,16.32
2019-02-15T14:46:55.404Z,16.36
2019-02-15T14:51:56.997Z,16.49
2019-02-15T14:56:58.985Z,16.57
2019-02-15T15:02:01.089Z,16.65
2019-02-15T15:07:02.696Z,16.69
2019-02-15T15:12:04.437Z,16.74
2019-02-15T15:17:06.015Z,16.81
2019-02-15T15:22:07.665Z,16.87
2019-02-15T15:27:09.228Z,16.90
2019-02-15T15:32:11.414Z,16.85
2019-02-15T15:37:16.561Z,16.84
2019-02-15T15:42:17.086Z,16.91
2019-02-15T15:47:18.856Z,16.89
2019-02-15T15:52:20.560Z,16.88
2019-02-15T15:57:22.202Z,16.89
2019-02-15T16:02:24.172Z,16.91
2019-02-15T16:07:26.048Z,16.88
2019-02-15T16:12:27.747Z,16.82
2019-02-15T16:17:29.747Z,16.73
2019-02-15T16:22:31.473Z,16.60
2019-02-15T16:27:33.108Z,16.43
2019-02-15T16:32:34.721Z,16.24
2019-02-15T16:37:36.331Z,16.03
2019-02-15T16:42:38.073Z,15.76
2019-02-15T16:47:39.786Z,15.51
2019-02-15T16:52:41.521Z,15.15
2019-02-15T16:57:43.074Z,14.68
2019-02-15T17:02:44.811Z,14.20
2019-02-15T17:07:46.425Z,13.80
2019-02-15T17:12:48.054Z,13.39
2019-02-15T17:17:49.697Z,13.01
2019-02-15T17:22:51.292Z,12.70
2019-02-15T17:27:52.853Z,12.39
2019-02-15T17:32:54.475Z,12.11
2019-02-15T17:37:56.418Z,11.87
2019-02-15T17:42:58.728Z,11.62
2019-02-15T17:48:00.779Z,11.40
2019-02-15T17:53:02.759Z,11.40
2019-02-15T17:58:04.371Z,11.37
2019-02-15T18:03:05.992Z,11.29
2019-02-15T18:08:07.615Z,11.20
2019-02-15T18:13:09.632Z,11.10
2019-02-15T18:18:11.253Z,10.96
2019-02-15T18:23:13.125Z,10.86
2019-02-15T18:28:14.797Z,10.72
2019-02-15T18:33:16.431Z,10.62
2019-02-15T18:38:19.024Z,10.50
2019-02-15T18:43:21.101Z,10.38
2019-02-15T18:48:22.679Z,10.30
2019-02-15T18:53:24.352Z,10.22
2019-02-15T18:58:26.053Z,10.11
2019-02-15T19:03:27.761Z,10.02
2019-02-15T19:08:29.796Z,9.96
2019-02-15T19:13:31.381Z,9.82
2019-02-15T19:18:33.901Z,9.63
2019-02-15T19:23:35.529Z,9.38
2019-02-15T19:28:37.112Z,9.19
2019-02-15T19:33:39.104Z,8.98
2019-02-15T19:38:40.939Z,8.83
2019-02-15T19:43:43.872Z,8.79
2019-02-15T19:48:45.458Z,8.79
2019-02-15T19:53:47.084Z,8.66
2019-02-15T19:58:48.762Z,8.41
2019-02-15T20:03:50.422Z,8.17
2019-02-15T20:08:52.089Z,7.97
2019-02-15T20:13:53.755Z,7.77
2019-02-15T20:18:56.350Z,7.63
2019-02-15T20:23:58.052Z,7.46
2019-02-15T20:28:59.645Z,7.32
2019-02-15T20:34:01.223Z,7.21
2019-02-15T20:39:02.913Z,7.13
2019-02-15T20:44:04.890Z,7.01
2019-02-15T20:49:07.547Z,6.93
2019-02-15T20:54:09.258Z,6.85
2019-02-15T20:59:10.892Z,6.73
2019-02-15T21:04:12.928Z,6.72
2019-02-15T21:09:15.616Z,6.85
2019-02-15T21:14:17.666Z,6.92
2019-02-15T21:19:19.851Z,6.88
2019-02-15T21:24:21.573Z,6.76
2019-02-15T21:29:25.323Z,6.66
2019-02-15T21:34:26.971Z,6.61
2019-02-15T21:39:28.802Z,6.56
2019-02-15T21:44:30.413Z,6.50
2019-02-15T21:49:32.095Z,6.43
2019-02-15T21:54:33.661Z,6.30
2019-02-15T21:59:35.431Z,6.28
2019-02-15T22:04:37.205Z,6.26
2019-02-15T22:09:39.110Z,6.26
2019-02-15T22:14:40.712Z,6.27
2019-02-15T22:19:42.391Z,6.23
2019-02-15T22:24:43.942Z,6.17
2019-02-15T22:29:45.499Z,6.08
2019-02-15T22:34:47.046Z,5.98
2019-02-15T22:39:48.618Z,5.83
2019-02-15T22:44:50.577Z,5.67
2019-02-15T22:49:52.195Z,5.52
2019-02-15T22:54:55.279Z,5.46
2019-02-15T23:00:00.976Z,5.48
2019-02-15T23:05:00.406Z,5.49
2019-02-15T23:10:02.402Z,5.41
2019-02-15T23:15:04.015Z,5.48
2019-02-15T23:20:05.799Z,5.48
2019-02-15T23:25:07.436Z,5.51
2019-02-15T23:30:09.399Z,5.48
2019-02-15T23:35:11.024Z,5.51
2019-02-15T23:40:12.582Z,5.45
2019-02-15T23:45:14.199Z,5.44
2019-02-15T23:50:15.726Z,5.42
2019-02-15T23:55:17.380Z,5.43
